sensor_id;sensor_type;location;lat;lon;timestamp;pressure;altitude;pressure_sealevel;temperature;humidity
7297;BME280;40758;54.038;11.684;2023-05-10T00:00:37;100937.38;;;9.10;60.24
7297;BME280;40758;54.038;11.684;2023-05-10T00:03:04;100915.72;;;9.10;60.01
7297;BME280;40758;54.038;11.684;2023-05-10T00:05:32;100912.38;;;9.08;60.26
7297;BME280;40758;54.038;11.684;2023-05-10T00:07:58;100916.13;;;9.00;60.15
7297;BME280;40758;54.038;11.684;2023-05-10T00:10:25;100872.34;;;8.70;60.20
7297;BME280;40758;54.038;11.684;2023-05-10T00:12:51;100921.34;;;9.02;60.34
7297;BME280;40758;54.038;11.684;2023-05-10T00:15:18;100914.66;;;8.98;60.49
7297;BME280;40758;54.038;11.684;2023-05-10T00:17:45;100878.59;;;8.71;60.71
7297;BME280;40758;54.038;11.684;2023-05-10T00:20:12;100911.75;;;8.99;60.53
7297;BME280;40758;54.038;11.684;2023-05-10T00:22:38;100910.94;;;8.99;60.72
7297;BME280;40758;54.038;11.684;2023-05-10T00:25:06;100907.19;;;9.00;60.75
7297;BME280;40758;54.038;11.684;2023-05-10T00:27:33;100899.44;;;8.97;60.62
7297;BME280;40758;54.038;11.684;2023-05-10T00:29:59;100905.69;;;8.97;60.89
7297;BME280;40758;54.038;11.684;2023-05-10T00:32:26;100900.50;;;8.96;60.65
7297;BME280;40758;54.038;11.684;2023-05-10T00:34:53;100891.75;;;8.94;60.93
7297;BME280;40758;54.038;11.684;2023-05-10T00:37:19;100897.56;;;8.97;60.99
7297;BME280;40758;54.038;11.684;2023-05-10T00:39:46;100895.69;;;8.91;60.75
7297;BME280;40758;54.038;11.684;2023-05-10T00:42:13;100895.91;;;8.83;60.93
7297;BME280;40758;54.038;11.684;2023-05-10T00:44:39;100889.66;;;8.83;61.11
7297;BME280;40758;54.038;11.684;2023-05-10T00:47:06;100889.66;;;8.83;61.59
7297;BME280;40758;54.038;11.684;2023-05-10T00:49:34;100892.75;;;8.79;61.29
7297;BME280;40758;54.038;11.684;2023-05-10T00:52:02;100887.34;;;8.79;61.44
7297;BME280;40758;54.038;11.684;2023-05-10T00:54:29;100883.38;;;8.75;61.41
7297;BME280;40758;54.038;11.684;2023-05-10T00:56:56;100874.84;;;8.72;61.90
7297;BME280;40758;54.038;11.684;2023-05-10T00:59:24;100876.13;;;8.76;62.01
7297;BME280;40758;54.038;11.684;2023-05-10T01:01:51;100872.97;;;8.79;61.70
7297;BME280;40758;54.038;11.684;2023-05-10T01:04:18;100862.97;;;8.79;61.75
7297;BME280;40758;54.038;11.684;2023-05-10T01:06:46;100867.34;;;8.80;61.68
7297;BME280;40758;54.038;11.684;2023-05-10T01:09:13;100861.09;;;8.80;61.87
7297;BME280;40758;54.038;11.684;2023-05-10T01:11:39;100865.69;;;8.79;61.91
7297;BME280;40758;54.038;11.684;2023-05-10T01:14:06;100864.84;;;8.79;61.86
7297;BME280;40758;54.038;11.684;2023-05-10T01:16:36;100818.38;;;8.49;61.97
7297;BME280;40758;54.038;11.684;2023-05-10T01:19:19;100859.44;;;8.79;62.02
7297;BME280;40758;54.038;11.684;2023-05-10T01:27:16;100856.53;;;8.74;61.78
7297;BME280;40758;54.038;11.684;2023-05-10T01:35:47;100858.97;;;8.49;62.50
7297;BME280;40758;54.038;11.684;2023-05-10T01:38:30;100861.06;;;8.47;62.74
7297;BME280;40758;54.038;11.684;2023-05-10T01:43:43;100856.06;;;8.44;63.09
7297;BME280;40758;54.038;11.684;2023-05-10T01:46:23;100857.69;;;8.38;63.13
7297;BME280;40758;54.038;11.684;2023-05-10T01:48:54;100859.78;;;8.36;63.27
7297;BME280;40758;54.038;11.684;2023-05-10T01:51:24;100852.88;;;8.34;63.66
7297;BME280;40758;54.038;11.684;2023-05-10T01:53:58;100846.63;;;8.33;63.78
7297;BME280;40758;54.038;11.684;2023-05-10T01:56:30;100851.91;;;8.41;63.80
7297;BME280;40758;54.038;11.684;2023-05-10T01:58:58;100850.84;;;8.42;63.69
7297;BME280;40758;54.038;11.684;2023-05-10T02:01:26;100863.56;;;8.42;63.41
7297;BME280;40758;54.038;11.684;2023-05-10T02:03:55;100858.69;;;8.31;63.38
7297;BME280;40758;54.038;11.684;2023-05-10T02:06:24;100857.44;;;8.26;64.13
7297;BME280;40758;54.038;11.684;2023-05-10T02:08:53;100848.03;;;8.22;64.13
7297;BME280;40758;54.038;11.684;2023-05-10T02:11:20;100859.31;;;8.26;64.46
7297;BME280;40758;54.038;11.684;2023-05-10T02:13:50;100854.72;;;8.20;64.44
7297;BME280;40758;54.038;11.684;2023-05-10T02:16:22;100861.34;;;8.17;64.50
7297;BME280;40758;54.038;11.684;2023-05-10T02:18:51;100848.03;;;8.16;64.55
7297;BME280;40758;54.038;11.684;2023-05-10T02:21:20;100853.03;;;8.12;64.37
7297;BME280;40758;54.038;11.684;2023-05-10T02:23:50;100855.53;;;8.14;64.78
7297;BME280;40758;54.038;11.684;2023-05-10T02:26:20;100854.91;;;8.12;64.75
7297;BME280;40758;54.038;11.684;2023-05-10T02:28:49;100864.66;;;8.06;64.79
7297;BME280;40758;54.038;11.684;2023-05-10T02:31:19;100857.97;;;8.02;65.01
7297;BME280;40758;54.038;11.684;2023-05-10T02:33:47;100857.97;;;8.02;65.17
7297;BME280;40758;54.038;11.684;2023-05-10T02:36:16;100854.78;;;7.92;65.33
7297;BME280;40758;54.038;11.684;2023-05-10T02:38:44;100859.09;;;7.80;65.47
7297;BME280;40758;54.038;11.684;2023-05-10T02:41:13;100853.09;;;7.78;65.54
7297;BME280;40758;54.038;11.684;2023-05-10T02:43:41;100863.00;;;7.70;65.45
7297;BME280;40758;54.038;11.684;2023-05-10T02:46:09;100858.22;;;7.66;66.37
7297;BME280;40758;54.038;11.684;2023-05-10T02:48:36;100864.81;;;7.57;66.33
7297;BME280;40758;54.038;11.684;2023-05-10T02:51:05;100847.72;;;7.50;66.45
7297;BME280;40758;54.038;11.684;2023-05-10T02:53:35;100856.66;;;7.50;66.65
7297;BME280;40758;54.038;11.684;2023-05-10T02:56:12;100854.34;;;7.47;67.18
7297;BME280;40758;54.038;11.684;2023-05-10T02:58:41;100857.28;;;7.52;66.81
7297;BME280;40758;54.038;11.684;2023-05-10T03:01:11;100852.72;;;7.53;67.06
7297;BME280;40758;54.038;11.684;2023-05-10T03:03:37;100850.63;;;7.48;66.97
7297;BME280;40758;54.038;11.684;2023-05-10T03:06:04;100854.34;;;7.47;67.21
7297;BME280;40758;54.038;11.684;2023-05-10T03:08:31;100852.88;;;7.44;67.68
7297;BME280;40758;54.038;11.684;2023-05-10T03:16:08;100838.75;;;7.14;67.45
7297;BME280;40758;54.038;11.684;2023-05-10T03:19:12;100849.56;;;7.14;67.76
7297;BME280;40758;54.038;11.684;2023-05-10T03:21:43;100847.78;;;7.00;67.71
7297;BME280;40758;54.038;11.684;2023-05-10T03:24:12;100848.81;;;6.99;68.46
7297;BME280;40758;54.038;11.684;2023-05-10T03:26:43;100848.34;;;6.96;68.26
7297;BME280;40758;54.038;11.684;2023-05-10T03:29:12;100850.22;;;6.95;68.33
7297;BME280;40758;54.038;11.684;2023-05-10T03:31:39;100812.06;;;6.77;69.54
7297;BME280;40758;54.038;11.684;2023-05-10T03:34:06;100856.03;;;6.92;68.71
7297;BME280;40758;54.038;11.684;2023-05-10T03:36:33;100848.03;;;6.84;69.13
7297;BME280;40758;54.038;11.684;2023-05-10T03:39:00;100841.50;;;6.93;69.25
7297;BME280;40758;54.038;11.684;2023-05-10T03:41:26;100788.06;;;6.60;68.71
7297;BME280;40758;54.038;11.684;2023-05-10T03:43:53;100846.38;;;6.83;69.07
7297;BME280;40758;54.038;11.684;2023-05-10T03:46:20;100847.41;;;6.82;69.21
7297;BME280;40758;54.038;11.684;2023-05-10T03:48:46;100845.44;;;6.90;68.74
7297;BME280;40758;54.038;11.684;2023-05-10T03:51:13;100851.06;;;6.96;69.35
7297;BME280;40758;54.038;11.684;2023-05-10T03:53:40;100844.44;;;6.98;69.28
7297;BME280;40758;54.038;11.684;2023-05-10T03:56:06;100835.31;;;6.99;69.52
7297;BME280;40758;54.038;11.684;2023-05-10T03:58:33;100816.31;;;6.86;69.30
7297;BME280;40758;54.038;11.684;2023-05-10T04:01:00;100840.25;;;6.96;69.61
7297;BME280;40758;54.038;11.684;2023-05-10T04:03:26;100838.84;;;7.00;69.99
7297;BME280;40758;54.038;11.684;2023-05-10T04:06:00;100836.22;;;7.13;70.06
7297;BME280;40758;54.038;11.684;2023-05-10T04:08:27;100809.69;;;7.16;69.54
7297;BME280;40758;54.038;11.684;2023-05-10T04:10:54;100829.31;;;7.32;69.78
7297;BME280;40758;54.038;11.684;2023-05-10T04:13:21;100831.00;;;7.33;69.00
7297;BME280;40758;54.038;11.684;2023-05-10T04:15:48;100829.84;;;7.49;69.68
7297;BME280;40758;54.038;11.684;2023-05-10T04:18:14;100790.84;;;7.30;69.35
7297;BME280;40758;54.038;11.684;2023-05-10T04:20:41;100835.13;;;7.70;69.62
7297;BME280;40758;54.038;11.684;2023-05-10T04:23:08;100838.72;;;7.77;69.00
7297;BME280;40758;54.038;11.684;2023-05-10T04:25:35;100810.44;;;7.73;68.88
7297;BME280;40758;54.038;11.684;2023-05-10T04:28:02;100828.38;;;7.94;68.25
7297;BME280;40758;54.038;11.684;2023-05-10T04:30:29;100825.91;;;7.99;68.50
7297;BME280;40758;54.038;11.684;2023-05-10T04:32:56;100824.91;;;8.07;68.46
7297;BME280;40758;54.038;11.684;2023-05-10T04:35:23;100823.44;;;8.11;67.81
7297;BME280;40758;54.038;11.684;2023-05-10T04:37:49;100820.16;;;8.15;68.34
7297;BME280;40758;54.038;11.684;2023-05-10T04:40:17;100828.28;;;8.28;67.82
7297;BME280;40758;54.038;11.684;2023-05-10T04:42:44;100826.06;;;8.39;67.46
7297;BME280;40758;54.038;11.684;2023-05-10T04:45:15;100822.75;;;8.43;66.93
7297;BME280;40758;54.038;11.684;2023-05-10T04:47:43;100822.53;;;8.51;66.96
7297;BME280;40758;54.038;11.684;2023-05-10T04:50:10;100808.22;;;8.64;66.55
7297;BME280;40758;54.038;11.684;2023-05-10T04:52:37;100817.81;;;8.93;65.92
7297;BME280;40758;54.038;11.684;2023-05-10T04:55:05;100822.38;;;9.06;65.65
7297;BME280;40758;54.038;11.684;2023-05-10T04:57:34;100825.50;;;9.23;64.82
7297;BME280;40758;54.038;11.684;2023-05-10T05:00:04;100819.41;;;9.41;64.40
7297;BME280;40758;54.038;11.684;2023-05-10T05:02:31;100781.47;;;9.41;63.57
7297;BME280;40758;54.038;11.684;2023-05-10T05:04:58;100812.59;;;9.83;62.79
7297;BME280;40758;54.038;11.684;2023-05-10T05:07:25;100817.31;;;10.01;61.98
7297;BME280;40758;54.038;11.684;2023-05-10T05:09:53;100810.59;;;10.17;61.42
7297;BME280;40758;54.038;11.684;2023-05-10T05:12:20;100815.66;;;10.45;61.03
7297;BME280;40758;54.038;11.684;2023-05-10T05:14:47;100808.84;;;10.60;59.62
7297;BME280;40758;54.038;11.684;2023-05-10T05:17:15;100808.59;;;11.18;58.65
7297;BME280;40758;54.038;11.684;2023-05-10T05:19:49;100809.38;;;11.81;57.52
7297;BME280;40758;54.038;11.684;2023-05-10T05:22:19;100803.91;;;11.87;55.53
7297;BME280;40758;54.038;11.684;2023-05-10T05:24:54;100788.25;;;12.31;55.12
7297;BME280;40758;54.038;11.684;2023-05-10T05:27:21;100809.22;;;12.84;54.89
7297;BME280;40758;54.038;11.684;2023-05-10T05:29:52;100810.47;;;12.58;53.75
7297;BME280;40758;54.038;11.684;2023-05-10T05:32:19;100808.47;;;12.23;53.53
7297;BME280;40758;54.038;11.684;2023-05-10T05:34:47;100801.63;;;12.03;53.08
7297;BME280;40758;54.038;11.684;2023-05-10T05:37:15;100809.69;;;12.09;53.05
7297;BME280;40758;54.038;11.684;2023-05-10T05:39:43;100805.34;;;12.20;53.87
7297;BME280;40758;54.038;11.684;2023-05-10T05:42:12;100802.44;;;12.03;53.03
7297;BME280;40758;54.038;11.684;2023-05-10T05:44:40;100805.25;;;12.57;53.44
7297;BME280;40758;54.038;11.684;2023-05-10T05:47:06;100797.84;;;12.87;52.79
7297;BME280;40758;54.038;11.684;2023-05-10T05:49:34;100795.00;;;12.82;52.01
7297;BME280;40758;54.038;11.684;2023-05-10T05:52:03;100792.06;;;13.07;51.91
7297;BME280;40758;54.038;11.684;2023-05-10T05:54:30;100793.94;;;12.95;50.70
7297;BME280;40758;54.038;11.684;2023-05-10T05:56:58;100792.13;;;12.65;51.06
7297;BME280;40758;54.038;11.684;2023-05-10T05:59:27;100797.00;;;12.98;52.00
7297;BME280;40758;54.038;11.684;2023-05-10T06:01:54;100797.75;;;13.17;51.52
7297;BME280;40758;54.038;11.684;2023-05-10T06:04:21;100793.25;;;13.46;50.53
7297;BME280;40758;54.038;11.684;2023-05-10T06:06:48;100800.16;;;13.89;50.00
7297;BME280;40758;54.038;11.684;2023-05-10T06:09:15;100790.03;;;14.01;49.36
7297;BME280;40758;54.038;11.684;2023-05-10T06:11:43;100794.53;;;14.36;49.45
7297;BME280;40758;54.038;11.684;2023-05-10T06:14:10;100780.34;;;14.22;48.32
7297;BME280;40758;54.038;11.684;2023-05-10T06:16:36;100791.97;;;14.46;47.88
7297;BME280;40758;54.038;11.684;2023-05-10T06:19:03;100794.19;;;15.11;47.67
7297;BME280;40758;54.038;11.684;2023-05-10T06:21:30;100776.03;;;14.55;46.80
7297;BME280;40758;54.038;11.684;2023-05-10T06:23:57;100797.28;;;14.98;47.49
7297;BME280;40758;54.038;11.684;2023-05-10T06:26:23;100792.38;;;15.00;46.52
7297;BME280;40758;54.038;11.684;2023-05-10T06:28:53;100793.56;;;15.43;47.02
7297;BME280;40758;54.038;11.684;2023-05-10T06:31:20;100800.97;;;14.58;45.79
7297;BME280;40758;54.038;11.684;2023-05-10T06:33:48;100796.78;;;15.40;47.28
7297;BME280;40758;54.038;11.684;2023-05-10T06:36:15;100794.97;;;15.46;45.79
7297;BME280;40758;54.038;11.684;2023-05-10T06:38:42;100788.06;;;15.21;44.77
7297;BME280;40758;54.038;11.684;2023-05-10T06:41:12;100770.88;;;15.26;45.32
7297;BME280;40758;54.038;11.684;2023-05-10T06:43:39;100786.41;;;15.03;44.93
7297;BME280;40758;54.038;11.684;2023-05-10T06:46:07;100767.69;;;14.95;45.92
7297;BME280;40758;54.038;11.684;2023-05-10T06:48:34;100785.38;;;15.65;46.02
7297;BME280;40758;54.038;11.684;2023-05-10T06:51:01;100786.00;;;15.89;44.83
7297;BME280;40758;54.038;11.684;2023-05-10T06:53:28;100782.63;;;16.31;44.65
7297;BME280;40758;54.038;11.684;2023-05-10T06:55:54;100794.97;;;16.06;44.07
7297;BME280;40758;54.038;11.684;2023-05-10T06:58:21;100787.56;;;16.07;44.30
7297;BME280;40758;54.038;11.684;2023-05-10T07:00:48;100786.91;;;16.48;43.75
7297;BME280;40758;54.038;11.684;2023-05-10T07:03:17;100784.38;;;16.42;43.13
7297;BME280;40758;54.038;11.684;2023-05-10T07:05:44;100779.28;;;16.56;42.67
7297;BME280;40758;54.038;11.684;2023-05-10T07:08:15;100785.13;;;16.64;42.54
7297;BME280;40758;54.038;11.684;2023-05-10T07:10:43;100778.16;;;16.79;43.18
7297;BME280;40758;54.038;11.684;2023-05-10T07:13:10;100779.63;;;16.91;42.99
7297;BME280;40758;54.038;11.684;2023-05-10T07:15:37;100756.19;;;17.16;42.95
7297;BME280;40758;54.038;11.684;2023-05-10T07:18:04;100765.03;;;16.54;42.11
7297;BME280;40758;54.038;11.684;2023-05-10T07:20:33;100774.53;;;16.46;42.93
7297;BME280;40758;54.038;11.684;2023-05-10T07:22:59;100772.44;;;16.58;42.82
7297;BME280;40758;54.038;11.684;2023-05-10T07:25:27;100762.22;;;16.75;43.43
7297;BME280;40758;54.038;11.684;2023-05-10T07:27:54;100753.44;;;16.73;43.49
7297;BME280;40758;54.038;11.684;2023-05-10T07:30:21;100755.00;;;16.64;42.54
7297;BME280;40758;54.038;11.684;2023-05-10T07:32:49;100749.53;;;16.69;42.53
7297;BME280;40758;54.038;11.684;2023-05-10T07:35:15;100747.31;;;16.66;41.59
7297;BME280;40758;54.038;11.684;2023-05-10T07:37:43;100762.56;;;16.57;43.95
7297;BME280;40758;54.038;11.684;2023-05-10T07:40:11;100745.41;;;17.04;44.15
7297;BME280;40758;54.038;11.684;2023-05-10T07:42:37;100745.22;;;17.63;42.52
7297;BME280;40758;54.038;11.684;2023-05-10T07:45:05;100749.38;;;17.71;40.77
7297;BME280;40758;54.038;11.684;2023-05-10T07:47:31;100747.44;;;17.71;40.40
7297;BME280;40758;54.038;11.684;2023-05-10T07:49:58;100747.94;;;17.58;41.42
7297;BME280;40758;54.038;11.684;2023-05-10T07:52:25;100748.94;;;17.37;40.94
7297;BME280;40758;54.038;11.684;2023-05-10T07:54:52;100754.78;;;17.08;41.08
7297;BME280;40758;54.038;11.684;2023-05-10T07:57:20;100754.38;;;17.32;41.71
7297;BME280;40758;54.038;11.684;2023-05-10T07:59:49;100751.25;;;17.60;41.35
7297;BME280;40758;54.038;11.684;2023-05-10T08:02:18;100755.22;;;16.90;39.43
7297;BME280;40758;54.038;11.684;2023-05-10T08:04:44;100750.53;;;16.90;42.08
7297;BME280;40758;54.038;11.684;2023-05-10T08:07:13;100757.22;;;16.99;41.83
7297;BME280;40758;54.038;11.684;2023-05-10T08:09:43;100743.75;;;16.98;41.71
7297;BME280;40758;54.038;11.684;2023-05-10T08:12:11;100756.06;;;17.95;41.00
7297;BME280;40758;54.038;11.684;2023-05-10T08:14:42;100746.16;;;17.32;40.19
7297;BME280;40758;54.038;11.684;2023-05-10T08:17:11;100757.16;;;17.37;40.73
7297;BME280;40758;54.038;11.684;2023-05-10T08:19:37;100748.69;;;18.06;41.48
7297;BME280;40758;54.038;11.684;2023-05-10T08:22:04;100757.25;;;18.35;40.87
7297;BME280;40758;54.038;11.684;2023-05-10T08:24:32;100756.91;;;18.01;39.61
7297;BME280;40758;54.038;11.684;2023-05-10T08:27:07;100733.31;;;18.05;40.73
7297;BME280;40758;54.038;11.684;2023-05-10T08:29:38;100756.38;;;18.14;40.67
7297;BME280;40758;54.038;11.684;2023-05-10T08:32:15;100749.25;;;18.18;39.49
7297;BME280;40758;54.038;11.684;2023-05-10T08:34:44;100758.84;;;18.05;39.07
7297;BME280;40758;54.038;11.684;2023-05-10T08:37:11;100755.06;;;17.54;40.01
7297;BME280;40758;54.038;11.684;2023-05-10T08:39:41;100749.53;;;17.49;41.15
7297;BME280;40758;54.038;11.684;2023-05-10T08:42:08;100745.53;;;17.72;40.87
7297;BME280;40758;54.038;11.684;2023-05-10T08:44:36;100742.44;;;17.58;39.83
7297;BME280;40758;54.038;11.684;2023-05-10T08:47:06;100754.47;;;18.20;40.44
7297;BME280;40758;54.038;11.684;2023-05-10T08:49:33;100739.41;;;18.48;40.00
7297;BME280;40758;54.038;11.684;2023-05-10T08:52:04;100752.88;;;18.54;39.35
7297;BME280;40758;54.038;11.684;2023-05-10T08:54:33;100746.97;;;17.90;38.17
7297;BME280;40758;54.038;11.684;2023-05-10T08:57:02;100757.53;;;18.28;39.91
7297;BME280;40758;54.038;11.684;2023-05-10T08:59:31;100762.22;;;18.38;39.69
7297;BME280;40758;54.038;11.684;2023-05-10T09:01:59;100758.94;;;18.56;37.94
7297;BME280;40758;54.038;11.684;2023-05-10T09:04:27;100755.88;;;18.38;38.57
7297;BME280;40758;54.038;11.684;2023-05-10T09:06:57;100761.47;;;18.68;39.08
7297;BME280;40758;54.038;11.684;2023-05-10T09:09:27;100723.44;;;19.06;38.61
7297;BME280;40758;54.038;11.684;2023-05-10T09:11:57;100741.63;;;18.56;37.56
7297;BME280;40758;54.038;11.684;2023-05-10T09:14:25;100763.66;;;18.97;38.32
7297;BME280;40758;54.038;11.684;2023-05-10T09:16:53;100760.31;;;18.64;37.49
7297;BME280;40758;54.038;11.684;2023-05-10T09:19:22;100765.56;;;18.86;38.88
7297;BME280;40758;54.038;11.684;2023-05-10T09:21:49;100770.47;;;18.48;37.11
7297;BME280;40758;54.038;11.684;2023-05-10T09:24:17;100766.91;;;18.58;37.71
7297;BME280;40758;54.038;11.684;2023-05-10T09:26:48;100770.78;;;18.72;37.63
7297;BME280;40758;54.038;11.684;2023-05-10T09:29:15;100765.78;;;18.49;37.40
7297;BME280;40758;54.038;11.684;2023-05-10T09:34:19;100774.91;;;18.95;38.30
7297;BME280;40758;54.038;11.684;2023-05-10T09:37:05;100776.88;;;18.84;38.23
7297;BME280;40758;54.038;11.684;2023-05-10T09:39:33;100767.47;;;19.16;37.05
7297;BME280;40758;54.038;11.684;2023-05-10T09:42:03;100760.03;;;18.60;36.59
7297;BME280;40758;54.038;11.684;2023-05-10T09:44:32;100776.75;;;19.46;36.67
7297;BME280;40758;54.038;11.684;2023-05-10T09:47:02;100776.75;;;19.46;36.83
7297;BME280;40758;54.038;11.684;2023-05-10T09:49:29;100766.28;;;19.63;34.99
7297;BME280;40758;54.038;11.684;2023-05-10T09:52:06;100790.19;;;19.78;36.41
7297;BME280;40758;54.038;11.684;2023-05-10T09:54:34;100777.19;;;19.88;36.55
7297;BME280;40758;54.038;11.684;2023-05-10T09:57:01;100792.88;;;19.93;36.63
7297;BME280;40758;54.038;11.684;2023-05-10T09:59:42;100786.03;;;19.80;36.10
7297;BME280;40758;54.038;11.684;2023-05-10T10:02:09;100773.72;;;19.47;36.17
7297;BME280;40758;54.038;11.684;2023-05-10T10:04:43;100750.66;;;19.18;37.08
7297;BME280;40758;54.038;11.684;2023-05-10T10:07:09;100773.19;;;19.35;37.78
7297;BME280;40758;54.038;11.684;2023-05-10T10:09:36;100780.13;;;19.07;36.38
7297;BME280;40758;54.038;11.684;2023-05-10T10:12:03;100768.41;;;19.76;38.23
7297;BME280;40758;54.038;11.684;2023-05-10T10:14:31;100777.81;;;19.65;36.90
7297;BME280;40758;54.038;11.684;2023-05-10T10:17:00;100775.88;;;19.71;35.98
7297;BME280;40758;54.038;11.684;2023-05-10T10:19:32;100767.84;;;19.84;37.67
7297;BME280;40758;54.038;11.684;2023-05-10T10:22:00;100749.03;;;19.97;36.10
7297;BME280;40758;54.038;11.684;2023-05-10T10:24:26;100765.00;;;20.00;36.28
7297;BME280;40758;54.038;11.684;2023-05-10T10:26:57;100759.91;;;19.57;37.36
7297;BME280;40758;54.038;11.684;2023-05-10T10:29:47;100769.47;;;19.90;37.46
7297;BME280;40758;54.038;11.684;2023-05-10T10:35:08;100766.84;;;20.14;36.55
7297;BME280;40758;54.038;11.684;2023-05-10T10:37:46;100758.84;;;20.18;37.32
7297;BME280;40758;54.038;11.684;2023-05-10T10:40:33;100765.81;;;20.00;37.34
7297;BME280;40758;54.038;11.684;2023-05-10T10:43:29;100762.75;;;20.56;36.99
7297;BME280;40758;54.038;11.684;2023-05-10T10:46:16;100769.13;;;20.52;35.92
7297;BME280;40758;54.038;11.684;2023-05-10T10:48:49;100762.72;;;20.12;36.26
7297;BME280;40758;54.038;11.684;2023-05-10T10:51:17;100757.53;;;20.05;36.79
7297;BME280;40758;54.038;11.684;2023-05-10T10:53:47;100768.38;;;19.86;36.69
7297;BME280;40758;54.038;11.684;2023-05-10T10:56:24;100778.75;;;20.05;36.65
7297;BME280;40758;54.038;11.684;2023-05-10T10:58:51;100753.50;;;20.37;36.79
7297;BME280;40758;54.038;11.684;2023-05-10T11:01:19;100769.75;;;20.38;36.65
7297;BME280;40758;54.038;11.684;2023-05-10T11:04:19;100766.13;;;20.48;37.01
7297;BME280;40758;54.038;11.684;2023-05-10T11:06:50;100781.69;;;20.68;36.40
7297;BME280;40758;54.038;11.684;2023-05-10T11:09:42;100783.94;;;20.16;36.42
7297;BME280;40758;54.038;11.684;2023-05-10T11:12:10;100774.56;;;20.62;36.53
7297;BME280;40758;54.038;11.684;2023-05-10T11:14:38;100771.94;;;21.10;35.99
7297;BME280;40758;54.038;11.684;2023-05-10T11:17:22;100769.47;;;20.79;35.34
7297;BME280;40758;54.038;11.684;2023-05-10T11:20:06;100755.09;;;20.82;35.89
7297;BME280;40758;54.038;11.684;2023-05-10T11:22:49;100763.38;;;20.48;36.53
7297;BME280;40758;54.038;11.684;2023-05-10T11:25:17;100759.09;;;20.66;36.15
7297;BME280;40758;54.038;11.684;2023-05-10T11:27:44;100747.69;;;21.07;36.30
7297;BME280;40758;54.038;11.684;2023-05-10T11:30:14;100757.03;;;20.42;36.59
7297;BME280;40758;54.038;11.684;2023-05-10T11:32:43;100768.72;;;20.68;36.90
7297;BME280;40758;54.038;11.684;2023-05-10T11:35:11;100772.44;;;20.88;37.26
7297;BME280;40758;54.038;11.684;2023-05-10T11:37:41;100773.06;;;21.09;37.08
7297;BME280;40758;54.038;11.684;2023-05-10T11:40:10;100760.75;;;21.25;36.04
7297;BME280;40758;54.038;11.684;2023-05-10T11:42:39;100760.44;;;21.26;35.33
7297;BME280;40758;54.038;11.684;2023-05-10T11:45:07;100772.97;;;20.90;35.15
7297;BME280;40758;54.038;11.684;2023-05-10T11:47:34;100767.75;;;21.17;35.02
7297;BME280;40758;54.038;11.684;2023-05-10T11:50:02;100772.28;;;21.03;34.92
7297;BME280;40758;54.038;11.684;2023-05-10T11:52:35;100763.81;;;21.23;36.26
7297;BME280;40758;54.038;11.684;2023-05-10T11:55:03;100759.97;;;21.19;36.44
7297;BME280;40758;54.038;11.684;2023-05-10T11:57:29;100765.13;;;21.31;35.82
7297;BME280;40758;54.038;11.684;2023-05-10T11:59:57;100772.13;;;20.89;35.98
7297;BME280;40758;54.038;11.684;2023-05-10T12:02:25;100774.81;;;20.99;36.84
7297;BME280;40758;54.038;11.684;2023-05-10T12:04:52;100772.75;;;21.10;35.81
7297;BME280;40758;54.038;11.684;2023-05-10T12:07:19;100769.53;;;21.32;36.36
7297;BME280;40758;54.038;11.684;2023-05-10T12:10:12;100778.19;;;21.20;35.88
7297;BME280;40758;54.038;11.684;2023-05-10T12:12:45;100767.09;;;21.55;35.58
7297;BME280;40758;54.038;11.684;2023-05-10T12:15:24;100768.72;;;21.79;35.76
7297;BME280;40758;54.038;11.684;2023-05-10T12:17:53;100780.25;;;21.87;35.75
7297;BME280;40758;54.038;11.684;2023-05-10T12:20:21;100776.34;;;22.12;35.37
7297;BME280;40758;54.038;11.684;2023-05-10T12:22:54;100782.25;;;22.43;35.45
7297;BME280;40758;54.038;11.684;2023-05-10T12:25:23;100773.72;;;22.58;34.84
7297;BME280;40758;54.038;11.684;2023-05-10T12:27:57;100782.78;;;22.64;34.72
7297;BME280;40758;54.038;11.684;2023-05-10T12:30:26;100793.69;;;23.06;34.83
7297;BME280;40758;54.038;11.684;2023-05-10T12:32:54;100786.91;;;23.45;34.06
7297;BME280;40758;54.038;11.684;2023-05-10T12:35:25;100789.09;;;23.02;32.19
7297;BME280;40758;54.038;11.684;2023-05-10T12:37:52;100789.28;;;23.05;32.94
7297;BME280;40758;54.038;11.684;2023-05-10T12:40:19;100788.25;;;22.82;32.83
7297;BME280;40758;54.038;11.684;2023-05-10T12:42:47;100791.31;;;22.67;33.13
7297;BME280;40758;54.038;11.684;2023-05-10T12:45:17;100791.81;;;22.88;32.56
7297;BME280;40758;54.038;11.684;2023-05-10T12:47:45;100785.44;;;22.88;33.25
7297;BME280;40758;54.038;11.684;2023-05-10T12:50:14;100788.91;;;23.12;32.82
7297;BME280;40758;54.038;11.684;2023-05-10T12:52:44;100797.50;;;23.43;33.69
7297;BME280;40758;54.038;11.684;2023-05-10T12:55:14;100791.47;;;23.69;31.83
7297;BME280;40758;54.038;11.684;2023-05-10T12:57:41;100798.91;;;23.27;33.35
7297;BME280;40758;54.038;11.684;2023-05-10T13:00:08;100805.31;;;23.08;33.04
7297;BME280;40758;54.038;11.684;2023-05-10T13:02:36;100794.34;;;23.17;32.71
7297;BME280;40758;54.038;11.684;2023-05-10T13:05:03;100810.88;;;22.71;33.52
7297;BME280;40758;54.038;11.684;2023-05-10T13:07:30;100798.47;;;22.30;33.94
7297;BME280;40758;54.038;11.684;2023-05-10T13:09:56;100807.84;;;21.92;35.57
7297;BME280;40758;54.038;11.684;2023-05-10T13:12:27;100795.56;;;21.21;36.56
7297;BME280;40758;54.038;11.684;2023-05-10T13:14:56;100806.84;;;20.61;37.62
7297;BME280;40758;54.038;11.684;2023-05-10T13:17:22;100822.22;;;21.07;37.72
7297;BME280;40758;54.038;11.684;2023-05-10T13:19:50;100812.91;;;20.97;37.65
7297;BME280;40758;54.038;11.684;2023-05-10T13:22:18;100816.28;;;21.23;37.71
7297;BME280;40758;54.038;11.684;2023-05-10T13:25:02;100817.22;;;21.09;37.81
7297;BME280;40758;54.038;11.684;2023-05-10T13:27:29;100806.09;;;21.19;37.80